Portada
METAR-TAF:

METAR-TAF

Aeropuertos :

Morón de la Frontera, España

Base Aérea de Morón

latitud: 37-09N, longitud: 005-37W, altitud: 87 m

Observación

El informe se hizo hace 20 horas y 20 minutos, a las 15:00 UTC
Viento 11 kt del noreste con ráfagas de 21 kt, variando entre norte y este-noreste
Temperatura 19°C
Humedad 43%
Presión 1015 hPa
Visibilidad 10 km o más
sin nubes por debajo de 1500 m y sin presencia de cumulonimbus.

METAR: LEMO 201500Z 04011G21KT 350V070 CAVOK 19/06 Q1015 NOSIG

Hora: 12:20 (11:20 UTC)

Pronóstico

El informe se hizo hace 21 horas y 20 minutos, a las 14:00 UTC
Pronóstico válido del 20 a las 15 UTC al 20 a las 24 UTC
Viento 8 kt del noreste
Visibilidad 10 km o más
sin nubes por debajo de 1500 m y sin presencia de cumulonimbus.

TAF: LEMO 201400Z 2015/2024 05008KT CAVOK

Observaciones y pronósticos meteorológicos de más de 4000 aeropuertos (mensajes METAR y TAF).

Los puntos amarillos y rojos representan las estaciones disponibles.

Ponga el ratón en el punto deseado para ver el nombre de la estación.

Haga clic para ver las observaciones y los pronósticos meteorológicos.

Para cambiar el mapa : haga clic en los botones verdes con una cruz de color negro para hacer un zoom, en el botón verde con un guión para alejar o en las flechas verdes para mapas adyacentes.


METAR-TAF: